KHIB/HIB METAR and TAF weather

Enter ICAO airport designator
Station Type Date Time Source
KHIB METAR 2022/12/05 13:53 UTC NOAA

KHIB 051353Z AUTO 25004KT 10SM BKN016 M10/M12 A2971 RMK AO2 SLP087 I1000 T11001122


Station Type Date Time Source
KHIB Decoded METAR 2022/12/05 13:53 UTC NOAA

CHISHOLM-HIBBING AIRPORT, MN, United States (KHIB) 47-23N 92-50W 412M
Dec 05, 2022 - 08:53 AM EST / 2022.12.05 1353 UTC
Wind: from the WSW (250 degrees) at 5 MPH (4 KT):0
Visibility: 10 mile(s):0
Sky conditions: mostly cloudy
Temperature: 14.0 F (-10.0 C)
Windchill: 6 F (-14 C):1
Dew Point: 10.0 F (-12.2 C)
Relative Humidity: 83%
Pressure (altimeter): 29.71 in. Hg (1006 hPa)
ob: KHIB 051353Z AUTO 25004KT 10SM BKN016 M10/M12 A2971 RMK AO2 SLP087 I1000 T11001122
cycle: 14

Station Type Date Time Source
KHIB TAF 2022/12/05 13:45 UTC NOAA

TAF
AMD KHIB 051243Z 0513/0612 24005KT P6SM BKN150
FM051400 28007KT P6SM BKN017
FM051500 30008G16KT P6SM VCSH BKN035
TEMPO 0515/0518 6SM -SN BKN018
FM052100 32005KT P6SM SCT150

Example: see airport list